sensor_id;sensor_type;location;lat;lon;timestamp;P1;durP1;ratioP1;P2;durP2;ratioP2
12719;SDS011;6424;48.520;11.228;2023-06-14T00:02:09;4.67;;;3.83;;
12719;SDS011;6424;48.520;11.228;2023-06-14T00:04:50;5.13;;;3.93;;
12719;SDS011;6424;48.520;11.228;2023-06-14T00:07:17;5.17;;;4.20;;
12719;SDS011;6424;48.520;11.228;2023-06-14T00:09:58;5.60;;;4.07;;
12719;SDS011;6424;48.520;11.228;2023-06-14T00:12:39;5.70;;;4.00;;
12719;SDS011;6424;48.520;11.228;2023-06-14T00:15:20;5.93;;;4.20;;
12719;SDS011;6424;48.520;11.228;2023-06-14T00:18:01;5.93;;;4.67;;
12719;SDS011;6424;48.520;11.228;2023-06-14T00:20:43;4.70;;;4.30;;
12719;SDS011;6424;48.520;11.228;2023-06-14T00:23:24;5.20;;;4.30;;
12719;SDS011;6424;48.520;11.228;2023-06-14T00:25:50;4.93;;;4.43;;
12719;SDS011;6424;48.520;11.228;2023-06-14T00:28:31;5.10;;;4.57;;
12719;SDS011;6424;48.520;11.228;2023-06-14T00:31:12;5.70;;;4.20;;
12719;SDS011;6424;48.520;11.228;2023-06-14T00:33:52;5.83;;;4.40;;
12719;SDS011;6424;48.520;11.228;2023-06-14T00:36:18;5.43;;;4.37;;
12719;SDS011;6424;48.520;11.228;2023-06-14T00:38:59;6.67;;;4.93;;
12719;SDS011;6424;48.520;11.228;2023-06-14T00:41:40;4.83;;;4.40;;
12719;SDS011;6424;48.520;11.228;2023-06-14T00:44:21;5.43;;;4.37;;
12719;SDS011;6424;48.520;11.228;2023-06-14T00:47:01;6.07;;;3.87;;
12719;SDS011;6424;48.520;11.228;2023-06-14T00:49:44;7.47;;;4.30;;
12719;SDS011;6424;48.520;11.228;2023-06-14T00:52:25;4.60;;;4.07;;
12719;SDS011;6424;48.520;11.228;2023-06-14T00:55:06;4.90;;;4.40;;
12719;SDS011;6424;48.520;11.228;2023-06-14T00:57:33;4.87;;;4.37;;
12719;SDS011;6424;48.520;11.228;2023-06-14T01:00:17;6.27;;;4.30;;
12719;SDS011;6424;48.520;11.228;2023-06-14T01:02:58;5.13;;;4.60;;
12719;SDS011;6424;48.520;11.228;2023-06-14T01:05:39;5.43;;;4.07;;
12719;SDS011;6424;48.520;11.228;2023-06-14T01:11:16;5.10;;;4.60;;
12719;SDS011;6424;48.520;11.228;2023-06-14T01:13:47;5.03;;;4.53;;
12719;SDS011;6424;48.520;11.228;2023-06-14T01:16:30;5.13;;;4.07;;
12719;SDS011;6424;48.520;11.228;2023-06-14T01:19:12;4.47;;;4.00;;
12719;SDS011;6424;48.520;11.228;2023-06-14T01:21:55;5.70;;;4.60;;
12719;SDS011;6424;48.520;11.228;2023-06-14T01:24:36;7.13;;;4.33;;
12719;SDS011;6424;48.520;11.228;2023-06-14T01:27:19;5.97;;;4.77;;
12719;SDS011;6424;48.520;11.228;2023-06-14T01:30:01;6.67;;;4.93;;
12719;SDS011;6424;48.520;11.228;2023-06-14T01:32:42;5.20;;;4.70;;
12719;SDS011;6424;48.520;11.228;2023-06-14T01:35:24;5.83;;;4.30;;
12719;SDS011;6424;48.520;11.228;2023-06-14T01:38:06;4.70;;;4.30;;
12719;SDS011;6424;48.520;11.228;2023-06-14T01:40:33;6.43;;;5.00;;
12719;SDS011;6424;48.520;11.228;2023-06-14T01:43:16;5.53;;;4.47;;
12719;SDS011;6424;48.520;11.228;2023-06-14T01:45:58;5.13;;;4.63;;
12719;SDS011;6424;48.520;11.228;2023-06-14T01:48:25;5.47;;;4.77;;
12719;SDS011;6424;48.520;11.228;2023-06-14T01:51:06;5.17;;;4.60;;
12719;SDS011;6424;48.520;11.228;2023-06-14T01:53:47;5.77;;;4.37;;
12719;SDS011;6424;48.520;11.228;2023-06-14T01:56:28;6.67;;;4.70;;
12719;SDS011;6424;48.520;11.228;2023-06-14T01:59:09;4.60;;;4.20;;
12719;SDS011;6424;48.520;11.228;2023-06-14T02:01:50;5.53;;;4.83;;
12719;SDS011;6424;48.520;11.228;2023-06-14T02:04:31;5.53;;;4.73;;
12719;SDS011;6424;48.520;11.228;2023-06-14T02:07:12;6.23;;;4.87;;
12719;SDS011;6424;48.520;11.228;2023-06-14T02:09:53;7.40;;;4.97;;
12719;SDS011;6424;48.520;11.228;2023-06-14T02:12:34;5.90;;;4.30;;
12719;SDS011;6424;48.520;11.228;2023-06-14T02:15:15;7.73;;;5.10;;
12719;SDS011;6424;48.520;11.228;2023-06-14T02:18:00;5.63;;;5.03;;
12719;SDS011;6424;48.520;11.228;2023-06-14T02:20:44;8.20;;;5.53;;
12719;SDS011;6424;48.520;11.228;2023-06-14T02:23:25;5.37;;;4.33;;
12719;SDS011;6424;48.520;11.228;2023-06-14T02:26:06;5.77;;;4.80;;
12719;SDS011;6424;48.520;11.228;2023-06-14T02:28:46;5.83;;;5.20;;
12719;SDS011;6424;48.520;11.228;2023-06-14T02:31:27;8.33;;;5.67;;
12719;SDS011;6424;48.520;11.228;2023-06-14T02:34:09;6.33;;;5.67;;
12719;SDS011;6424;48.520;11.228;2023-06-14T02:36:49;5.97;;;4.83;;
12719;SDS011;6424;48.520;11.228;2023-06-14T02:39:32;7.73;;;4.93;;
12719;SDS011;6424;48.520;11.228;2023-06-14T02:42:13;6.10;;;5.50;;
12719;SDS011;6424;48.520;11.228;2023-06-14T02:44:54;5.43;;;4.87;;
12719;SDS011;6424;48.520;11.228;2023-06-14T02:47:35;6.60;;;4.60;;
12719;SDS011;6424;48.520;11.228;2023-06-14T02:50:15;5.37;;;4.87;;
12719;SDS011;6424;48.520;11.228;2023-06-14T02:52:57;5.80;;;5.10;;
12719;SDS011;6424;48.520;11.228;2023-06-14T02:55:38;8.07;;;4.93;;
12719;SDS011;6424;48.520;11.228;2023-06-14T02:58:19;6.00;;;4.77;;
12719;SDS011;6424;48.520;11.228;2023-06-14T03:01:00;5.67;;;4.17;;
12719;SDS011;6424;48.520;11.228;2023-06-14T03:03:43;4.90;;;4.40;;
12719;SDS011;6424;48.520;11.228;2023-06-14T03:06:24;8.07;;;4.37;;
12719;SDS011;6424;48.520;11.228;2023-06-14T03:09:05;5.70;;;4.43;;
12719;SDS011;6424;48.520;11.228;2023-06-14T03:11:46;5.20;;;4.63;;
12719;SDS011;6424;48.520;11.228;2023-06-14T03:14:27;7.67;;;4.50;;
12719;SDS011;6424;48.520;11.228;2023-06-14T03:17:09;4.43;;;4.03;;
12719;SDS011;6424;48.520;11.228;2023-06-14T03:19:50;4.77;;;4.30;;
12719;SDS011;6424;48.520;11.228;2023-06-14T03:22:31;4.17;;;3.77;;
12719;SDS011;6424;48.520;11.228;2023-06-14T03:25:14;6.70;;;4.40;;
12719;SDS011;6424;48.520;11.228;2023-06-14T03:27:55;4.77;;;3.90;;
12719;SDS011;6424;48.520;11.228;2023-06-14T03:30:36;9.50;;;5.17;;
12719;SDS011;6424;48.520;11.228;2023-06-14T03:33:17;4.90;;;4.27;;
12719;SDS011;6424;48.520;11.228;2023-06-14T03:35:58;6.37;;;4.87;;
12719;SDS011;6424;48.520;11.228;2023-06-14T03:38:24;5.23;;;4.50;;
12719;SDS011;6424;48.520;11.228;2023-06-14T03:41:05;6.50;;;4.53;;
12719;SDS011;6424;48.520;11.228;2023-06-14T03:43:46;8.40;;;4.30;;
12719;SDS011;6424;48.520;11.228;2023-06-14T03:46:29;4.97;;;4.47;;
12719;SDS011;6424;48.520;11.228;2023-06-14T03:49:11;7.60;;;4.37;;
12719;SDS011;6424;48.520;11.228;2023-06-14T03:51:37;6.20;;;4.67;;
12719;SDS011;6424;48.520;11.228;2023-06-14T03:54:18;6.50;;;4.43;;
12719;SDS011;6424;48.520;11.228;2023-06-14T03:56:59;7.10;;;4.87;;
12719;SDS011;6424;48.520;11.228;2023-06-14T03:59:39;11.07;;;5.00;;
12719;SDS011;6424;48.520;11.228;2023-06-14T04:02:21;5.47;;;4.60;;
12719;SDS011;6424;48.520;11.228;2023-06-14T04:05:02;6.87;;;5.60;;
12719;SDS011;6424;48.520;11.228;2023-06-14T04:07:44;7.73;;;6.00;;
12719;SDS011;6424;48.520;11.228;2023-06-14T04:10:26;7.47;;;5.17;;
12719;SDS011;6424;48.520;11.228;2023-06-14T04:13:07;7.20;;;4.70;;
12719;SDS011;6424;48.520;11.228;2023-06-14T04:15:48;8.43;;;5.10;;
12719;SDS011;6424;48.520;11.228;2023-06-14T04:18:14;8.40;;;4.97;;
12719;SDS011;6424;48.520;11.228;2023-06-14T04:20:40;5.20;;;4.70;;
12719;SDS011;6424;48.520;11.228;2023-06-14T04:23:21;5.07;;;4.27;;
12719;SDS011;6424;48.520;11.228;2023-06-14T04:26:02;4.83;;;4.43;;
12719;SDS011;6424;48.520;11.228;2023-06-14T04:28:43;5.37;;;4.43;;
12719;SDS011;6424;48.520;11.228;2023-06-14T04:31:28;5.57;;;4.70;;
12719;SDS011;6424;48.520;11.228;2023-06-14T04:34:09;4.80;;;4.37;;
12719;SDS011;6424;48.520;11.228;2023-06-14T04:36:56;6.23;;;5.10;;
12719;SDS011;6424;48.520;11.228;2023-06-14T04:39:37;6.83;;;4.93;;
12719;SDS011;6424;48.520;11.228;2023-06-14T04:42:03;9.47;;;5.00;;
12719;SDS011;6424;48.520;11.228;2023-06-14T04:44:44;5.57;;;4.13;;
12719;SDS011;6424;48.520;11.228;2023-06-14T04:47:26;5.20;;;4.70;;
12719;SDS011;6424;48.520;11.228;2023-06-14T04:49:55;4.30;;;3.90;;
12719;SDS011;6424;48.520;11.228;2023-06-14T04:52:37;9.83;;;4.33;;
12719;SDS011;6424;48.520;11.228;2023-06-14T04:55:18;5.23;;;4.70;;
12719;SDS011;6424;48.520;11.228;2023-06-14T04:58:00;5.30;;;4.70;;
12719;SDS011;6424;48.520;11.228;2023-06-14T05:00:40;4.97;;;4.33;;
12719;SDS011;6424;48.520;11.228;2023-06-14T05:03:23;5.67;;;5.17;;
12719;SDS011;6424;48.520;11.228;2023-06-14T05:06:04;5.80;;;4.87;;
12719;SDS011;6424;48.520;11.228;2023-06-14T05:08:46;5.20;;;4.70;;
12719;SDS011;6424;48.520;11.228;2023-06-14T05:11:27;6.23;;;5.27;;
12719;SDS011;6424;48.520;11.228;2023-06-14T05:13:53;6.10;;;5.17;;
12719;SDS011;6424;48.520;11.228;2023-06-14T05:16:34;6.93;;;5.43;;
12719;SDS011;6424;48.520;11.228;2023-06-14T05:19:00;9.13;;;5.00;;
12719;SDS011;6424;48.520;11.228;2023-06-14T05:21:41;5.53;;;4.60;;
12719;SDS011;6424;48.520;11.228;2023-06-14T05:24:22;7.30;;;5.10;;
12719;SDS011;6424;48.520;11.228;2023-06-14T05:27:03;5.77;;;4.50;;
12719;SDS011;6424;48.520;11.228;2023-06-14T05:29:45;6.17;;;4.53;;
12719;SDS011;6424;48.520;11.228;2023-06-14T05:32:26;6.07;;;5.03;;
12719;SDS011;6424;48.520;11.228;2023-06-14T05:35:07;5.53;;;4.53;;
12719;SDS011;6424;48.520;11.228;2023-06-14T05:37:48;6.03;;;3.77;;
12719;SDS011;6424;48.520;11.228;2023-06-14T05:40:29;5.27;;;3.70;;
12719;SDS011;6424;48.520;11.228;2023-06-14T05:43:10;7.03;;;3.97;;
12719;SDS011;6424;48.520;11.228;2023-06-14T05:45:53;7.27;;;4.10;;
12719;SDS011;6424;48.520;11.228;2023-06-14T05:48:34;5.37;;;4.10;;
12719;SDS011;6424;48.520;11.228;2023-06-14T05:51:15;6.40;;;3.93;;
12719;SDS011;6424;48.520;11.228;2023-06-14T05:53:58;4.03;;;3.63;;
12719;SDS011;6424;48.520;11.228;2023-06-14T05:56:39;5.03;;;3.93;;
12719;SDS011;6424;48.520;11.228;2023-06-14T05:59:20;4.00;;;3.53;;
12719;SDS011;6424;48.520;11.228;2023-06-14T06:02:01;4.40;;;3.30;;
12719;SDS011;6424;48.520;11.228;2023-06-14T06:04:42;5.50;;;3.87;;
12719;SDS011;6424;48.520;11.228;2023-06-14T06:07:23;5.73;;;3.30;;
12719;SDS011;6424;48.520;11.228;2023-06-14T06:10:04;4.77;;;3.70;;
12719;SDS011;6424;48.520;11.228;2023-06-14T06:12:46;5.60;;;3.60;;
12719;SDS011;6424;48.520;11.228;2023-06-14T06:15:13;5.40;;;3.90;;
12719;SDS011;6424;48.520;11.228;2023-06-14T06:17:54;5.13;;;3.40;;
12719;SDS011;6424;48.520;11.228;2023-06-14T06:20:35;4.43;;;3.53;;
12719;SDS011;6424;48.520;11.228;2023-06-14T06:23:16;5.80;;;3.50;;
12719;SDS011;6424;48.520;11.228;2023-06-14T06:25:57;5.47;;;3.87;;
12719;SDS011;6424;48.520;11.228;2023-06-14T06:28:23;5.33;;;3.77;;
12719;SDS011;6424;48.520;11.228;2023-06-14T06:31:04;6.20;;;3.90;;
12719;SDS011;6424;48.520;11.228;2023-06-14T06:33:45;4.10;;;3.70;;
12719;SDS011;6424;48.520;11.228;2023-06-14T06:36:26;4.60;;;3.70;;
12719;SDS011;6424;48.520;11.228;2023-06-14T06:39:07;3.90;;;3.40;;
12719;SDS011;6424;48.520;11.228;2023-06-14T06:41:50;5.70;;;3.37;;
12719;SDS011;6424;48.520;11.228;2023-06-14T06:44:31;3.97;;;3.57;;
12719;SDS011;6424;48.520;11.228;2023-06-14T06:46:57;3.30;;;3.00;;
12719;SDS011;6424;48.520;11.228;2023-06-14T06:49:38;5.37;;;3.13;;
12719;SDS011;6424;48.520;11.228;2023-06-14T06:52:19;3.37;;;3.00;;
12719;SDS011;6424;48.520;11.228;2023-06-14T06:55:00;3.87;;;2.93;;
12719;SDS011;6424;48.520;11.228;2023-06-14T06:57:41;3.27;;;2.97;;
12719;SDS011;6424;48.520;11.228;2023-06-14T07:00:21;5.20;;;3.03;;
12719;SDS011;6424;48.520;11.228;2023-06-14T07:03:02;4.53;;;3.07;;
12719;SDS011;6424;48.520;11.228;2023-06-14T07:05:44;5.23;;;3.33;;
12719;SDS011;6424;48.520;11.228;2023-06-14T07:08:24;3.87;;;3.13;;
12719;SDS011;6424;48.520;11.228;2023-06-14T07:11:05;5.17;;;3.13;;
12719;SDS011;6424;48.520;11.228;2023-06-14T07:13:46;4.93;;;2.87;;
12719;SDS011;6424;48.520;11.228;2023-06-14T07:16:27;3.70;;;3.17;;
12719;SDS011;6424;48.520;11.228;2023-06-14T07:18:53;4.47;;;2.77;;
12719;SDS011;6424;48.520;11.228;2023-06-14T07:21:33;3.33;;;2.67;;
12719;SDS011;6424;48.520;11.228;2023-06-14T07:24:14;5.50;;;2.87;;
12719;SDS011;6424;48.520;11.228;2023-06-14T07:26:55;3.37;;;3.00;;
12719;SDS011;6424;48.520;11.228;2023-06-14T07:29:36;5.43;;;3.17;;
12719;SDS011;6424;48.520;11.228;2023-06-14T07:32:17;3.33;;;3.00;;
12719;SDS011;6424;48.520;11.228;2023-06-14T07:34:58;3.20;;;2.63;;
12719;SDS011;6424;48.520;11.228;2023-06-14T07:37:38;7.27;;;3.03;;
12719;SDS011;6424;48.520;11.228;2023-06-14T07:40:20;3.30;;;2.90;;
12719;SDS011;6424;48.520;11.228;2023-06-14T07:43:01;3.93;;;3.20;;
12719;SDS011;6424;48.520;11.228;2023-06-14T07:45:42;4.77;;;2.93;;
12719;SDS011;6424;48.520;11.228;2023-06-14T07:48:23;3.23;;;2.93;;
12719;SDS011;6424;48.520;11.228;2023-06-14T07:51:04;3.10;;;2.80;;
12719;SDS011;6424;48.520;11.228;2023-06-14T07:53:44;3.83;;;3.20;;
12719;SDS011;6424;48.520;11.228;2023-06-14T07:56:26;2.83;;;2.50;;
12719;SDS011;6424;48.520;11.228;2023-06-14T07:59:07;5.47;;;2.80;;
12719;SDS011;6424;48.520;11.228;2023-06-14T08:01:48;3.30;;;2.70;;
12719;SDS011;6424;48.520;11.228;2023-06-14T08:04:28;5.67;;;3.20;;
12719;SDS011;6424;48.520;11.228;2023-06-14T08:07:09;3.30;;;2.90;;
12719;SDS011;6424;48.520;11.228;2023-06-14T08:09:50;3.23;;;2.93;;
12719;SDS011;6424;48.520;11.228;2023-06-14T08:12:31;5.23;;;3.13;;
12719;SDS011;6424;48.520;11.228;2023-06-14T08:15:12;3.93;;;3.00;;
12719;SDS011;6424;48.520;11.228;2023-06-14T08:17:53;6.60;;;3.13;;
12719;SDS011;6424;48.520;11.228;2023-06-14T08:20:34;4.10;;;2.80;;
12719;SDS011;6424;48.520;11.228;2023-06-14T08:23:15;3.20;;;2.80;;
12719;SDS011;6424;48.520;11.228;2023-06-14T08:25:59;4.43;;;2.93;;
12719;SDS011;6424;48.520;11.228;2023-06-14T08:28:26;4.13;;;3.00;;
12719;SDS011;6424;48.520;11.228;2023-06-14T08:31:08;3.00;;;2.63;;
12719;SDS011;6424;48.520;11.228;2023-06-14T08:33:49;3.60;;;3.07;;
12719;SDS011;6424;48.520;11.228;2023-06-14T08:36:30;3.13;;;2.70;;
12719;SDS011;6424;48.520;11.228;2023-06-14T08:39:11;5.60;;;2.80;;
12719;SDS011;6424;48.520;11.228;2023-06-14T08:41:52;3.20;;;2.87;;
12719;SDS011;6424;48.520;11.228;2023-06-14T08:44:34;3.60;;;2.67;;
12719;SDS011;6424;48.520;11.228;2023-06-14T08:47:15;5.83;;;2.87;;
12719;SDS011;6424;48.520;11.228;2023-06-14T08:49:58;4.00;;;2.90;;
12719;SDS011;6424;48.520;11.228;2023-06-14T08:52:39;4.67;;;2.90;;
12719;SDS011;6424;48.520;11.228;2023-06-14T08:55:26;3.13;;;2.70;;
12719;SDS011;6424;48.520;11.228;2023-06-14T08:58:07;3.67;;;2.97;;
12719;SDS011;6424;48.520;11.228;2023-06-14T09:00:49;6.43;;;3.00;;
12719;SDS011;6424;48.520;11.228;2023-06-14T09:03:32;5.20;;;2.77;;
12719;SDS011;6424;48.520;11.228;2023-06-14T09:06:13;3.27;;;2.97;;
12719;SDS011;6424;48.520;11.228;2023-06-14T09:08:55;7.03;;;2.73;;
12719;SDS011;6424;48.520;11.228;2023-06-14T09:11:41;6.30;;;3.07;;
12719;SDS011;6424;48.520;11.228;2023-06-14T09:14:26;5.60;;;2.70;;
12719;SDS011;6424;48.520;11.228;2023-06-14T09:17:06;7.13;;;2.90;;
12719;SDS011;6424;48.520;11.228;2023-06-14T09:19:47;3.67;;;3.00;;
12719;SDS011;6424;48.520;11.228;2023-06-14T09:22:13;5.07;;;3.10;;
12719;SDS011;6424;48.520;11.228;2023-06-14T09:24:56;2.60;;;2.40;;
12719;SDS011;6424;48.520;11.228;2023-06-14T09:27:37;5.57;;;3.00;;
12719;SDS011;6424;48.520;11.228;2023-06-14T09:30:20;4.67;;;2.97;;
12719;SDS011;6424;48.520;11.228;2023-06-14T09:33:01;2.70;;;2.50;;
12719;SDS011;6424;48.520;11.228;2023-06-14T09:35:44;3.37;;;2.73;;
12719;SDS011;6424;48.520;11.228;2023-06-14T09:38:26;4.80;;;2.93;;
12719;SDS011;6424;48.520;11.228;2023-06-14T09:41:07;3.57;;;3.03;;
12719;SDS011;6424;48.520;11.228;2023-06-14T09:43:48;3.17;;;2.77;;
12719;SDS011;6424;48.520;11.228;2023-06-14T09:46:30;4.13;;;3.27;;
12719;SDS011;6424;48.520;11.228;2023-06-14T09:49:00;2.97;;;2.30;;
12719;SDS011;6424;48.520;11.228;2023-06-14T09:51:45;2.60;;;2.40;;
12719;SDS011;6424;48.520;11.228;2023-06-14T09:54:28;3.03;;;2.63;;
12719;SDS011;6424;48.520;11.228;2023-06-14T09:57:10;3.37;;;2.97;;
12719;SDS011;6424;48.520;11.228;2023-06-14T09:59:53;5.53;;;2.73;;
12719;SDS011;6424;48.520;11.228;2023-06-14T10:02:40;2.60;;;2.40;;
12719;SDS011;6424;48.520;11.228;2023-06-14T10:05:27;4.87;;;2.70;;
12719;SDS011;6424;48.520;11.228;2023-06-14T10:08:10;3.33;;;2.70;;
12719;SDS011;6424;48.520;11.228;2023-06-14T10:10:55;3.37;;;3.03;;
12719;SDS011;6424;48.520;11.228;2023-06-14T10:13:37;3.13;;;2.63;;
12719;SDS011;6424;48.520;11.228;2023-06-14T10:19:24;4.80;;;2.90;;
12719;SDS011;6424;48.520;11.228;2023-06-14T10:22:19;3.77;;;2.47;;
12719;SDS011;6424;48.520;11.228;2023-06-14T10:25:07;4.40;;;2.67;;
12719;SDS011;6424;48.520;11.228;2023-06-14T10:27:53;3.33;;;2.70;;
12719;SDS011;6424;48.520;11.228;2023-06-14T10:39:45;3.93;;;2.50;;
12719;SDS011;6424;48.520;11.228;2023-06-14T10:42:32;3.47;;;2.63;;
12719;SDS011;6424;48.520;11.228;2023-06-14T10:45:13;3.10;;;2.70;;
12719;SDS011;6424;48.520;11.228;2023-06-14T10:47:56;4.10;;;2.80;;
12719;SDS011;6424;48.520;11.228;2023-06-14T10:50:37;2.60;;;2.40;;
12719;SDS011;6424;48.520;11.228;2023-06-14T10:53:24;4.43;;;2.83;;
12719;SDS011;6424;48.520;11.228;2023-06-14T10:56:06;3.27;;;2.60;;
12719;SDS011;6424;48.520;11.228;2023-06-14T10:58:47;3.80;;;2.70;;
12719;SDS011;6424;48.520;11.228;2023-06-14T11:01:13;4.03;;;2.53;;
12719;SDS011;6424;48.520;11.228;2023-06-14T11:03:55;4.00;;;2.83;;
12719;SDS011;6424;48.520;11.228;2023-06-14T11:06:50;4.20;;;2.70;;
12719;SDS011;6424;48.520;11.228;2023-06-14T11:12:23;4.50;;;2.80;;
12719;SDS011;6424;48.520;11.228;2023-06-14T11:15:06;4.47;;;2.70;;
12719;SDS011;6424;48.520;11.228;2023-06-14T11:17:51;5.43;;;3.13;;
12719;SDS011;6424;48.520;11.228;2023-06-14T11:20:24;2.93;;;2.67;;
12719;SDS011;6424;48.520;11.228;2023-06-14T11:22:51;3.80;;;2.40;;
12719;SDS011;6424;48.520;11.228;2023-06-14T11:25:32;3.40;;;2.70;;
12719;SDS011;6424;48.520;11.228;2023-06-14T11:27:58;2.70;;;2.50;;
12719;SDS011;6424;48.520;11.228;2023-06-14T11:30:39;2.90;;;2.60;;
12719;SDS011;6424;48.520;11.228;2023-06-14T11:33:20;3.47;;;2.50;;
12719;SDS011;6424;48.520;11.228;2023-06-14T11:36:03;6.00;;;3.20;;
12719;SDS011;6424;48.520;11.228;2023-06-14T11:38:48;9.93;;;3.03;;
12719;SDS011;6424;48.520;11.228;2023-06-14T11:41:36;5.67;;;2.80;;
12719;SDS011;6424;48.520;11.228;2023-06-14T11:44:21;3.63;;;2.80;;
12719;SDS011;6424;48.520;11.228;2023-06-14T11:47:03;4.30;;;2.80;;
12719;SDS011;6424;48.520;11.228;2023-06-14T11:49:29;4.70;;;2.73;;
12719;SDS011;6424;48.520;11.228;2023-06-14T11:52:14;5.53;;;3.10;;
12719;SDS011;6424;48.520;11.228;2023-06-14T11:54:55;3.27;;;2.97;;
12719;SDS011;6424;48.520;11.228;2023-06-14T11:57:37;4.37;;;2.80;;
12719;SDS011;6424;48.520;11.228;2023-06-14T12:00:19;5.10;;;2.87;;
12719;SDS011;6424;48.520;11.228;2023-06-14T12:03:01;5.37;;;3.00;;
12719;SDS011;6424;48.520;11.228;2023-06-14T12:05:43;3.23;;;2.70;;
12719;SDS011;6424;48.520;11.228;2023-06-14T12:08:24;3.60;;;2.93;;
12719;SDS011;6424;48.520;11.228;2023-06-14T12:11:18;5.10;;;2.83;;
12719;SDS011;6424;48.520;11.228;2023-06-14T12:13:59;4.77;;;2.60;;
12719;SDS011;6424;48.520;11.228;2023-06-14T12:16:41;4.67;;;2.93;;
12719;SDS011;6424;48.520;11.228;2023-06-14T12:19:25;3.87;;;2.90;;
12719;SDS011;6424;48.520;11.228;2023-06-14T12:21:51;4.40;;;2.70;;
12719;SDS011;6424;48.520;11.228;2023-06-14T12:24:32;3.97;;;3.00;;
12719;SDS011;6424;48.520;11.228;2023-06-14T12:27:13;3.80;;;2.80;;
12719;SDS011;6424;48.520;11.228;2023-06-14T12:30:01;4.73;;;2.80;;
12719;SDS011;6424;48.520;11.228;2023-06-14T12:32:43;3.20;;;2.90;;
12719;SDS011;6424;48.520;11.228;2023-06-14T12:35:25;2.57;;;2.37;;
12719;SDS011;6424;48.520;11.228;2023-06-14T12:38:06;3.03;;;2.77;;
12719;SDS011;6424;48.520;11.228;2023-06-14T12:40:47;5.37;;;2.87;;
12719;SDS011;6424;48.520;11.228;2023-06-14T12:43:28;2.63;;;2.43;;
12719;SDS011;6424;48.520;11.228;2023-06-14T12:46:09;5.00;;;2.93;;
12719;SDS011;6424;48.520;11.228;2023-06-14T12:48:49;3.07;;;2.77;;
12719;SDS011;6424;48.520;11.228;2023-06-14T12:51:30;3.20;;;2.90;;
12719;SDS011;6424;48.520;11.228;2023-06-14T12:54:11;3.33;;;2.90;;
12719;SDS011;6424;48.520;11.228;2023-06-14T12:56:52;4.00;;;3.17;;
12719;SDS011;6424;48.520;11.228;2023-06-14T12:59:35;6.90;;;3.27;;
12719;SDS011;6424;48.520;11.228;2023-06-14T13:02:16;3.30;;;3.00;;
12719;SDS011;6424;48.520;11.228;2023-06-14T13:04:57;4.53;;;2.90;;
12719;SDS011;6424;48.520;11.228;2023-06-14T13:07:39;5.43;;;3.07;;
12719;SDS011;6424;48.520;11.228;2023-06-14T13:10:19;4.50;;;3.30;;
12719;SDS011;6424;48.520;11.228;2023-06-14T13:13:00;6.03;;;3.27;;
12719;SDS011;6424;48.520;11.228;2023-06-14T13:15:42;3.77;;;3.10;;
12719;SDS011;6424;48.520;11.228;2023-06-14T13:18:24;6.47;;;2.90;;
12719;SDS011;6424;48.520;11.228;2023-06-14T13:21:05;3.10;;;2.80;;
12719;SDS011;6424;48.520;11.228;2023-06-14T13:23:45;4.93;;;2.67;;
12719;SDS011;6424;48.520;11.228;2023-06-14T13:26:26;3.73;;;2.80;;
12719;SDS011;6424;48.520;11.228;2023-06-14T13:29:07;3.50;;;2.80;;
12719;SDS011;6424;48.520;11.228;2023-06-14T13:31:48;4.43;;;2.90;;
12719;SDS011;6424;48.520;11.228;2023-06-14T13:34:14;2.90;;;2.40;;
12719;SDS011;6424;48.520;11.228;2023-06-14T13:36:39;3.10;;;2.80;;
12719;SDS011;6424;48.520;11.228;2023-06-14T13:39:20;4.37;;;2.60;;
12719;SDS011;6424;48.520;11.228;2023-06-14T13:42:01;4.67;;;3.07;;
12719;SDS011;6424;48.520;11.228;2023-06-14T13:44:42;4.37;;;2.90;;
12719;SDS011;6424;48.520;11.228;2023-06-14T13:47:23;4.07;;;2.77;;
12719;SDS011;6424;48.520;11.228;2023-06-14T13:50:04;3.20;;;2.90;;
12719;SDS011;6424;48.520;11.228;2023-06-14T13:52:45;3.13;;;2.83;;
12719;SDS011;6424;48.520;11.228;2023-06-14T13:55:26;4.87;;;2.83;;
12719;SDS011;6424;48.520;11.228;2023-06-14T13:58:07;6.13;;;3.23;;
12719;SDS011;6424;48.520;11.228;2023-06-14T14:00:48;5.37;;;3.10;;
12719;SDS011;6424;48.520;11.228;2023-06-14T14:03:28;4.43;;;3.07;;
12719;SDS011;6424;48.520;11.228;2023-06-14T14:06:10;6.63;;;3.00;;
12719;SDS011;6424;48.520;11.228;2023-06-14T14:08:51;3.10;;;2.80;;
12719;SDS011;6424;48.520;11.228;2023-06-14T14:11:32;3.10;;;2.53;;
12719;SDS011;6424;48.520;11.228;2023-06-14T14:14:13;4.40;;;2.63;;
12719;SDS011;6424;48.520;11.228;2023-06-14T14:16:54;4.87;;;2.87;;
12719;SDS011;6424;48.520;11.228;2023-06-14T14:19:22;7.90;;;3.20;;
12719;SDS011;6424;48.520;11.228;2023-06-14T14:22:02;3.40;;;2.83;;
12719;SDS011;6424;48.520;11.228;2023-06-14T14:24:43;5.10;;;2.60;;
12719;SDS011;6424;48.520;11.228;2023-06-14T14:27:24;3.40;;;2.93;;
12719;SDS011;6424;48.520;11.228;2023-06-14T14:30:05;5.07;;;3.23;;
12719;SDS011;6424;48.520;11.228;2023-06-14T14:32:46;4.10;;;2.63;;
12719;SDS011;6424;48.520;11.228;2023-06-14T14:35:28;4.30;;;2.90;;
12719;SDS011;6424;48.520;11.228;2023-06-14T14:38:10;4.77;;;3.40;;
12719;SDS011;6424;48.520;11.228;2023-06-14T14:40:51;3.93;;;2.80;;
12719;SDS011;6424;48.520;11.228;2023-06-14T14:43:32;6.13;;;3.03;;
12719;SDS011;6424;48.520;11.228;2023-06-14T14:46:13;5.80;;;3.10;;
12719;SDS011;6424;48.520;11.228;2023-06-14T14:48:54;4.47;;;3.20;;
12719;SDS011;6424;48.520;11.228;2023-06-14T14:51:20;3.27;;;2.97;;
12719;SDS011;6424;48.520;11.228;2023-06-14T14:54:00;4.83;;;3.10;;
12719;SDS011;6424;48.520;11.228;2023-06-14T14:56:26;5.10;;;2.53;;
12719;SDS011;6424;48.520;11.228;2023-06-14T14:59:07;3.30;;;2.80;;
12719;SDS011;6424;48.520;11.228;2023-06-14T15:01:48;3.27;;;2.70;;
12719;SDS011;6424;48.520;11.228;2023-06-14T15:04:29;4.50;;;3.10;;
12719;SDS011;6424;48.520;11.228;2023-06-14T15:06:54;5.53;;;2.90;;
12719;SDS011;6424;48.520;11.228;2023-06-14T15:09:37;8.07;;;3.23;;
12719;SDS011;6424;48.520;11.228;2023-06-14T15:12:18;4.57;;;3.10;;
12719;SDS011;6424;48.520;11.228;2023-06-14T15:15:00;5.03;;;3.00;;
12719;SDS011;6424;48.520;11.228;2023-06-14T15:17:41;5.30;;;3.30;;
12719;SDS011;6424;48.520;11.228;2023-06-14T15:20:22;5.20;;;3.10;;
12719;SDS011;6424;48.520;11.228;2023-06-14T15:23:02;3.20;;;2.80;;
12719;SDS011;6424;48.520;11.228;2023-06-14T15:25:43;4.83;;;2.73;;
12719;SDS011;6424;48.520;11.228;2023-06-14T15:28:24;3.60;;;2.87;;
12719;SDS011;6424;48.520;11.228;2023-06-14T15:31:08;3.67;;;3.00;;
12719;SDS011;6424;48.520;11.228;2023-06-14T15:33:49;3.00;;;2.70;;
12719;SDS011;6424;48.520;11.228;2023-06-14T15:36:14;3.80;;;2.63;;
12719;SDS011;6424;48.520;11.228;2023-06-14T15:38:55;3.30;;;2.70;;
12719;SDS011;6424;48.520;11.228;2023-06-14T15:41:36;4.00;;;2.53;;
12719;SDS011;6424;48.520;11.228;2023-06-14T15:44:17;4.47;;;2.57;;
12719;SDS011;6424;48.520;11.228;2023-06-14T15:46:58;4.23;;;3.17;;
12719;SDS011;6424;48.520;11.228;2023-06-14T15:49:38;4.77;;;3.27;;
12719;SDS011;6424;48.520;11.228;2023-06-14T15:52:19;4.77;;;3.30;;
12719;SDS011;6424;48.520;11.228;2023-06-14T15:55:00;3.47;;;2.87;;
12719;SDS011;6424;48.520;11.228;2023-06-14T15:57:42;3.50;;;3.20;;
12719;SDS011;6424;48.520;11.228;2023-06-14T16:00:07;3.53;;;2.80;;
12719;SDS011;6424;48.520;11.228;2023-06-14T16:02:49;8.00;;;3.10;;
12719;SDS011;6424;48.520;11.228;2023-06-14T16:05:30;4.77;;;3.13;;
12719;SDS011;6424;48.520;11.228;2023-06-14T16:08:11;5.07;;;3.30;;
12719;SDS011;6424;48.520;11.228;2023-06-14T16:10:37;3.60;;;3.03;;
12719;SDS011;6424;48.520;11.228;2023-06-14T16:13:18;3.93;;;3.37;;
12719;SDS011;6424;48.520;11.228;2023-06-14T16:15:59;7.17;;;3.30;;
12719;SDS011;6424;48.520;11.228;2023-06-14T16:18:40;3.20;;;2.90;;
12719;SDS011;6424;48.520;11.228;2023-06-14T16:21:21;3.80;;;2.97;;
12719;SDS011;6424;48.520;11.228;2023-06-14T16:24:02;4.47;;;2.90;;